Terminal Aerodrome Forecast
Issued by NWS Louisville, KY

Home | Current Version | Previous Version | Text Only | Print | Product List | Glossary On
Versions: 1 2 3 4 5 6 7 8 9 10 11 12
000
FTUS43 KLMK 282320
TAFLEX
TAF
KLEX 282320Z 2900/2924 22009KT P6SM VCSH SCT040 BKN100
     FM290100 19004KT P6SM BKN200
     FM291500 22007KT P6SM BKN050
     FM292200 24008KT P6SM VCSH BKN050=

USA.gov is the U.S. government's official web portal to all federal, state and local government web resources and services.